sensor_id;sensor_type;location;lat;lon;timestamp;P1;durP1;ratioP1;P2;durP2;ratioP2
69185;SDS011;56298;49.246;9.410;2022-08-03T00:00:59;4.90;;;2.70;;
69185;SDS011;56298;49.246;9.410;2022-08-03T00:03:25;4.50;;;2.33;;
69185;SDS011;56298;49.246;9.410;2022-08-03T00:05:50;5.20;;;2.53;;
69185;SDS011;56298;49.246;9.410;2022-08-03T00:08:15;7.20;;;2.50;;
69185;SDS011;56298;49.246;9.410;2022-08-03T00:10:41;5.27;;;2.70;;
69185;SDS011;56298;49.246;9.410;2022-08-03T00:13:06;4.80;;;2.50;;
69185;SDS011;56298;49.246;9.410;2022-08-03T00:15:32;5.13;;;2.60;;
69185;SDS011;56298;49.246;9.410;2022-08-03T00:17:57;5.05;;;2.75;;
69185;SDS011;56298;49.246;9.410;2022-08-03T00:20:23;5.40;;;2.70;;
69185;SDS011;56298;49.246;9.410;2022-08-03T00:22:49;6.17;;;2.80;;
69185;SDS011;56298;49.246;9.410;2022-08-03T00:25:14;5.25;;;2.70;;
69185;SDS011;56298;49.246;9.410;2022-08-03T00:27:40;5.70;;;2.40;;
69185;SDS011;56298;49.246;9.410;2022-08-03T00:30:06;5.30;;;2.47;;
69185;SDS011;56298;49.246;9.410;2022-08-03T00:32:32;5.15;;;2.60;;
69185;SDS011;56298;49.246;9.410;2022-08-03T00:34:57;5.37;;;2.97;;
69185;SDS011;56298;49.246;9.410;2022-08-03T00:37:22;5.87;;;2.90;;
69185;SDS011;56298;49.246;9.410;2022-08-03T00:39:48;5.17;;;2.80;;
69185;SDS011;56298;49.246;9.410;2022-08-03T00:42:13;5.57;;;2.90;;
69185;SDS011;56298;49.246;9.410;2022-08-03T00:44:39;5.72;;;2.90;;
69185;SDS011;56298;49.246;9.410;2022-08-03T00:47:06;4.83;;;2.60;;
69185;SDS011;56298;49.246;9.410;2022-08-03T00:49:32;5.18;;;2.70;;
69185;SDS011;56298;49.246;9.410;2022-08-03T00:51:58;6.20;;;2.50;;
69185;SDS011;56298;49.246;9.410;2022-08-03T00:54:24;5.20;;;2.87;;
69185;SDS011;56298;49.246;9.410;2022-08-03T00:56:49;4.53;;;2.70;;
69185;SDS011;56298;49.246;9.410;2022-08-03T00:59:15;5.30;;;2.78;;
69185;SDS011;56298;49.246;9.410;2022-08-03T01:01:42;6.37;;;3.00;;
69185;SDS011;56298;49.246;9.410;2022-08-03T01:04:07;4.80;;;2.90;;
69185;SDS011;56298;49.246;9.410;2022-08-03T01:06:35;6.03;;;3.00;;
69185;SDS011;56298;49.246;9.410;2022-08-03T01:09:11;7.70;;;2.75;;
69185;SDS011;56298;49.246;9.410;2022-08-03T01:11:51;5.77;;;3.03;;
69185;SDS011;56298;49.246;9.410;2022-08-03T01:14:24;6.57;;;3.03;;
69185;SDS011;56298;49.246;9.410;2022-08-03T01:20:18;5.82;;;3.20;;
69185;SDS011;56298;49.246;9.410;2022-08-03T01:31:36;5.13;;;2.87;;
69185;SDS011;56298;49.246;9.410;2022-08-03T01:34:06;5.20;;;2.87;;
69185;SDS011;56298;49.246;9.410;2022-08-03T01:36:35;5.05;;;2.90;;
69185;SDS011;56298;49.246;9.410;2022-08-03T01:39:04;6.05;;;3.05;;
69185;SDS011;56298;49.246;9.410;2022-08-03T01:41:37;6.03;;;2.95;;
69185;SDS011;56298;49.246;9.410;2022-08-03T01:44:07;5.22;;;3.00;;
69185;SDS011;56298;49.246;9.410;2022-08-03T01:46:34;5.25;;;3.10;;
69185;SDS011;56298;49.246;9.410;2022-08-03T01:49:01;5.82;;;3.45;;
69185;SDS011;56298;49.246;9.410;2022-08-03T01:51:28;5.70;;;3.20;;
69185;SDS011;56298;49.246;9.410;2022-08-03T01:53:55;5.00;;;3.10;;
69185;SDS011;56298;49.246;9.410;2022-08-03T01:56:23;7.40;;;3.33;;
69185;SDS011;56298;49.246;9.410;2022-08-03T01:58:50;5.30;;;3.05;;
69185;SDS011;56298;49.246;9.410;2022-08-03T02:01:17;6.00;;;3.30;;
69185;SDS011;56298;49.246;9.410;2022-08-03T02:03:45;5.47;;;3.33;;
69185;SDS011;56298;49.246;9.410;2022-08-03T02:06:13;5.35;;;3.45;;
69185;SDS011;56298;49.246;9.410;2022-08-03T02:08:39;6.20;;;3.20;;
69185;SDS011;56298;49.246;9.410;2022-08-03T02:11:07;5.50;;;3.10;;
69185;SDS011;56298;49.246;9.410;2022-08-03T02:13:32;6.73;;;3.40;;
69185;SDS011;56298;49.246;9.410;2022-08-03T02:15:59;6.30;;;3.47;;
69185;SDS011;56298;49.246;9.410;2022-08-03T02:18:27;4.95;;;3.00;;
69185;SDS011;56298;49.246;9.410;2022-08-03T02:20:53;5.93;;;3.30;;
69185;SDS011;56298;49.246;9.410;2022-08-03T02:23:19;6.20;;;3.55;;
69185;SDS011;56298;49.246;9.410;2022-08-03T02:25:46;7.07;;;3.30;;
69185;SDS011;56298;49.246;9.410;2022-08-03T02:28:16;6.03;;;3.40;;
69185;SDS011;56298;49.246;9.410;2022-08-03T02:30:44;7.40;;;3.35;;
69185;SDS011;56298;49.246;9.410;2022-08-03T02:33:13;5.95;;;3.10;;
69185;SDS011;56298;49.246;9.410;2022-08-03T02:35:43;5.13;;;3.10;;
69185;SDS011;56298;49.246;9.410;2022-08-03T02:38:10;5.07;;;3.30;;
69185;SDS011;56298;49.246;9.410;2022-08-03T02:40:37;5.63;;;3.10;;
69185;SDS011;56298;49.246;9.410;2022-08-03T02:43:08;5.20;;;3.13;;
69185;SDS011;56298;49.246;9.410;2022-08-03T02:45:37;5.68;;;3.25;;
69185;SDS011;56298;49.246;9.410;2022-08-03T02:48:08;6.18;;;3.25;;
69185;SDS011;56298;49.246;9.410;2022-08-03T02:50:35;6.03;;;3.40;;
69185;SDS011;56298;49.246;9.410;2022-08-03T02:53:02;6.40;;;3.50;;
69185;SDS011;56298;49.246;9.410;2022-08-03T02:55:28;6.43;;;3.40;;
69185;SDS011;56298;49.246;9.410;2022-08-03T02:57:55;6.05;;;3.38;;
69185;SDS011;56298;49.246;9.410;2022-08-03T03:00:22;5.70;;;3.10;;
69185;SDS011;56298;49.246;9.410;2022-08-03T03:02:48;5.05;;;3.20;;
69185;SDS011;56298;49.246;9.410;2022-08-03T03:05:14;5.50;;;3.22;;
69185;SDS011;56298;49.246;9.410;2022-08-03T03:07:40;5.75;;;3.28;;
69185;SDS011;56298;49.246;9.410;2022-08-03T03:10:07;5.60;;;3.47;;
69185;SDS011;56298;49.246;9.410;2022-08-03T03:12:33;5.50;;;3.50;;
69185;SDS011;56298;49.246;9.410;2022-08-03T03:15:01;6.20;;;3.60;;
69185;SDS011;56298;49.246;9.410;2022-08-03T03:17:26;6.33;;;3.20;;
69185;SDS011;56298;49.246;9.410;2022-08-03T03:19:51;6.00;;;3.43;;
69185;SDS011;56298;49.246;9.410;2022-08-03T03:22:18;6.07;;;3.70;;
69185;SDS011;56298;49.246;9.410;2022-08-03T03:24:44;6.47;;;3.37;;
69185;SDS011;56298;49.246;9.410;2022-08-03T03:27:12;6.70;;;3.80;;
69185;SDS011;56298;49.246;9.410;2022-08-03T03:29:38;8.27;;;3.33;;
69185;SDS011;56298;49.246;9.410;2022-08-03T03:32:04;6.43;;;3.43;;
69185;SDS011;56298;49.246;9.410;2022-08-03T03:34:30;5.28;;;3.40;;
69185;SDS011;56298;49.246;9.410;2022-08-03T03:36:56;6.90;;;3.60;;
69185;SDS011;56298;49.246;9.410;2022-08-03T03:39:21;5.47;;;3.30;;
69185;SDS011;56298;49.246;9.410;2022-08-03T03:41:46;6.83;;;3.47;;
69185;SDS011;56298;49.246;9.410;2022-08-03T03:44:12;5.45;;;3.53;;
69185;SDS011;56298;49.246;9.410;2022-08-03T03:46:38;6.20;;;3.70;;
69185;SDS011;56298;49.246;9.410;2022-08-03T03:49:06;6.95;;;3.70;;
69185;SDS011;56298;49.246;9.410;2022-08-03T03:51:32;6.45;;;3.47;;
69185;SDS011;56298;49.246;9.410;2022-08-03T03:53:58;6.33;;;3.43;;
69185;SDS011;56298;49.246;9.410;2022-08-03T03:56:25;6.85;;;3.55;;
69185;SDS011;56298;49.246;9.410;2022-08-03T03:58:51;5.07;;;3.20;;
69185;SDS011;56298;49.246;9.410;2022-08-03T04:01:17;5.72;;;3.63;;
69185;SDS011;56298;49.246;9.410;2022-08-03T04:03:42;7.57;;;3.63;;
69185;SDS011;56298;49.246;9.410;2022-08-03T04:06:07;6.23;;;3.40;;
69185;SDS011;56298;49.246;9.410;2022-08-03T04:08:51;6.15;;;3.42;;
69185;SDS011;56298;49.246;9.410;2022-08-03T04:11:37;6.00;;;3.70;;
69185;SDS011;56298;49.246;9.410;2022-08-03T04:14:07;6.10;;;3.67;;
69185;SDS011;56298;49.246;9.410;2022-08-03T04:16:36;5.93;;;3.50;;
69185;SDS011;56298;49.246;9.410;2022-08-03T04:19:08;7.25;;;3.40;;
69185;SDS011;56298;49.246;9.410;2022-08-03T04:21:37;5.25;;;3.40;;
69185;SDS011;56298;49.246;9.410;2022-08-03T04:24:06;6.25;;;3.58;;
69185;SDS011;56298;49.246;9.410;2022-08-03T04:26:35;6.13;;;3.45;;
69185;SDS011;56298;49.246;9.410;2022-08-03T04:29:03;6.00;;;3.63;;
69185;SDS011;56298;49.246;9.410;2022-08-03T04:31:30;6.65;;;3.30;;
69185;SDS011;56298;49.246;9.410;2022-08-03T04:33:56;5.30;;;3.40;;
69185;SDS011;56298;49.246;9.410;2022-08-03T04:36:24;6.23;;;3.30;;
69185;SDS011;56298;49.246;9.410;2022-08-03T04:41:55;6.63;;;3.60;;
69185;SDS011;56298;49.246;9.410;2022-08-03T04:44:22;5.78;;;3.20;;
69185;SDS011;56298;49.246;9.410;2022-08-03T04:46:49;7.55;;;3.53;;
69185;SDS011;56298;49.246;9.410;2022-08-03T04:49:15;7.22;;;3.53;;
69185;SDS011;56298;49.246;9.410;2022-08-03T04:51:41;6.07;;;3.33;;
69185;SDS011;56298;49.246;9.410;2022-08-03T04:54:11;5.97;;;3.40;;
69185;SDS011;56298;49.246;9.410;2022-08-03T04:56:40;5.65;;;3.20;;
69185;SDS011;56298;49.246;9.410;2022-08-03T04:59:06;6.50;;;3.50;;
69185;SDS011;56298;49.246;9.410;2022-08-03T05:01:32;5.55;;;3.10;;
69185;SDS011;56298;49.246;9.410;2022-08-03T05:03:57;5.70;;;3.10;;
69185;SDS011;56298;49.246;9.410;2022-08-03T05:06:22;7.10;;;3.50;;
69185;SDS011;56298;49.246;9.410;2022-08-03T05:08:48;6.20;;;3.38;;
69185;SDS011;56298;49.246;9.410;2022-08-03T05:11:14;8.57;;;3.20;;
69185;SDS011;56298;49.246;9.410;2022-08-03T05:13:40;5.75;;;3.22;;
69185;SDS011;56298;49.246;9.410;2022-08-03T05:16:05;5.88;;;3.33;;
69185;SDS011;56298;49.246;9.410;2022-08-03T05:18:30;6.28;;;3.40;;
69185;SDS011;56298;49.246;9.410;2022-08-03T05:20:56;6.45;;;3.28;;
69185;SDS011;56298;49.246;9.410;2022-08-03T05:23:21;5.50;;;3.20;;
69185;SDS011;56298;49.246;9.410;2022-08-03T05:25:46;5.93;;;3.10;;
69185;SDS011;56298;49.246;9.410;2022-08-03T05:28:12;5.43;;;3.13;;
69185;SDS011;56298;49.246;9.410;2022-08-03T05:30:37;6.37;;;2.90;;
69185;SDS011;56298;49.246;9.410;2022-08-03T05:33:02;6.70;;;3.10;;
69185;SDS011;56298;49.246;9.410;2022-08-03T05:35:28;5.00;;;2.90;;
69185;SDS011;56298;49.246;9.410;2022-08-03T05:37:54;5.55;;;2.85;;
69185;SDS011;56298;49.246;9.410;2022-08-03T05:40:20;5.90;;;2.87;;
69185;SDS011;56298;49.246;9.410;2022-08-03T05:42:47;5.68;;;2.85;;
69185;SDS011;56298;49.246;9.410;2022-08-03T05:45:13;5.75;;;2.88;;
69185;SDS011;56298;49.246;9.410;2022-08-03T05:47:45;5.32;;;2.90;;
69185;SDS011;56298;49.246;9.410;2022-08-03T05:50:12;5.70;;;2.97;;
69185;SDS011;56298;49.246;9.410;2022-08-03T05:52:55;4.85;;;2.70;;
69185;SDS011;56298;49.246;9.410;2022-08-03T05:55:24;4.95;;;2.50;;
69185;SDS011;56298;49.246;9.410;2022-08-03T05:57:49;6.33;;;2.80;;
69185;SDS011;56298;49.246;9.410;2022-08-03T06:00:14;6.10;;;3.10;;
69185;SDS011;56298;49.246;9.410;2022-08-03T06:02:40;4.93;;;2.58;;
69185;SDS011;56298;49.246;9.410;2022-08-03T06:05:06;7.13;;;2.53;;
69185;SDS011;56298;49.246;9.410;2022-08-03T06:07:32;5.22;;;2.58;;
69185;SDS011;56298;49.246;9.410;2022-08-03T06:09:57;5.73;;;2.83;;
69185;SDS011;56298;49.246;9.410;2022-08-03T06:12:23;5.30;;;3.00;;
69185;SDS011;56298;49.246;9.410;2022-08-03T06:14:48;6.10;;;2.83;;
69185;SDS011;56298;49.246;9.410;2022-08-03T06:17:14;5.90;;;2.60;;
69185;SDS011;56298;49.246;9.410;2022-08-03T06:19:39;5.47;;;2.50;;
69185;SDS011;56298;49.246;9.410;2022-08-03T06:22:04;6.20;;;2.80;;
69185;SDS011;56298;49.246;9.410;2022-08-03T06:24:29;5.60;;;2.50;;
69185;SDS011;56298;49.246;9.410;2022-08-03T06:26:55;4.53;;;2.40;;
69185;SDS011;56298;49.246;9.410;2022-08-03T06:29:20;6.00;;;2.50;;
69185;SDS011;56298;49.246;9.410;2022-08-03T06:31:46;5.10;;;2.50;;
69185;SDS011;56298;49.246;9.410;2022-08-03T06:34:11;5.17;;;2.50;;
69185;SDS011;56298;49.246;9.410;2022-08-03T06:36:36;5.40;;;2.70;;
69185;SDS011;56298;49.246;9.410;2022-08-03T06:39:02;5.50;;;2.53;;
69185;SDS011;56298;49.246;9.410;2022-08-03T06:41:28;5.45;;;2.70;;
69185;SDS011;56298;49.246;9.410;2022-08-03T06:43:53;4.80;;;2.23;;
69185;SDS011;56298;49.246;9.410;2022-08-03T06:46:19;4.32;;;2.10;;
69185;SDS011;56298;49.246;9.410;2022-08-03T06:48:44;5.00;;;2.20;;
69185;SDS011;56298;49.246;9.410;2022-08-03T06:51:10;5.45;;;2.40;;
69185;SDS011;56298;49.246;9.410;2022-08-03T06:53:35;4.40;;;2.13;;
69185;SDS011;56298;49.246;9.410;2022-08-03T06:56:01;5.55;;;2.30;;
69185;SDS011;56298;49.246;9.410;2022-08-03T06:58:28;4.60;;;2.30;;
69185;SDS011;56298;49.246;9.410;2022-08-03T07:00:54;4.23;;;2.10;;
69185;SDS011;56298;49.246;9.410;2022-08-03T07:03:19;6.17;;;2.50;;
69185;SDS011;56298;49.246;9.410;2022-08-03T07:05:44;4.93;;;2.10;;
69185;SDS011;56298;49.246;9.410;2022-08-03T07:08:11;5.60;;;2.35;;
69185;SDS011;56298;49.246;9.410;2022-08-03T07:10:37;5.37;;;2.20;;
69185;SDS011;56298;49.246;9.410;2022-08-03T07:13:02;5.07;;;2.13;;
69185;SDS011;56298;49.246;9.410;2022-08-03T07:15:29;4.40;;;2.13;;
69185;SDS011;56298;49.246;9.410;2022-08-03T07:17:55;5.60;;;2.45;;
69185;SDS011;56298;49.246;9.410;2022-08-03T07:20:20;6.70;;;2.33;;
69185;SDS011;56298;49.246;9.410;2022-08-03T07:22:46;5.53;;;2.43;;
69185;SDS011;56298;49.246;9.410;2022-08-03T07:25:11;5.60;;;2.40;;
69185;SDS011;56298;49.246;9.410;2022-08-03T07:27:37;6.18;;;2.15;;
69185;SDS011;56298;49.246;9.410;2022-08-03T07:30:04;4.83;;;2.43;;
69185;SDS011;56298;49.246;9.410;2022-08-03T07:32:30;4.57;;;2.53;;
69185;SDS011;56298;49.246;9.410;2022-08-03T07:34:55;6.43;;;2.10;;
69185;SDS011;56298;49.246;9.410;2022-08-03T07:37:21;4.90;;;1.97;;
69185;SDS011;56298;49.246;9.410;2022-08-03T07:39:46;6.10;;;2.40;;
69185;SDS011;56298;49.246;9.410;2022-08-03T07:42:12;5.37;;;2.30;;
69185;SDS011;56298;49.246;9.410;2022-08-03T07:44:37;4.95;;;2.00;;
69185;SDS011;56298;49.246;9.410;2022-08-03T07:47:03;5.43;;;2.40;;
69185;SDS011;56298;49.246;9.410;2022-08-03T07:49:28;5.40;;;2.35;;
69185;SDS011;56298;49.246;9.410;2022-08-03T07:51:54;6.40;;;2.23;;
69185;SDS011;56298;49.246;9.410;2022-08-03T07:54:38;5.60;;;2.30;;
69185;SDS011;56298;49.246;9.410;2022-08-03T07:57:03;5.30;;;2.20;;
69185;SDS011;56298;49.246;9.410;2022-08-03T07:59:28;5.90;;;2.20;;
69185;SDS011;56298;49.246;9.410;2022-08-03T08:01:54;4.37;;;2.40;;
69185;SDS011;56298;49.246;9.410;2022-08-03T08:04:20;4.70;;;2.00;;
69185;SDS011;56298;49.246;9.410;2022-08-03T08:06:46;5.53;;;2.30;;
69185;SDS011;56298;49.246;9.410;2022-08-03T08:09:11;4.73;;;2.30;;
69185;SDS011;56298;49.246;9.410;2022-08-03T08:11:37;4.78;;;2.25;;
69185;SDS011;56298;49.246;9.410;2022-08-03T08:14:03;5.37;;;2.37;;
69185;SDS011;56298;49.246;9.410;2022-08-03T08:16:29;6.33;;;2.70;;
69185;SDS011;56298;49.246;9.410;2022-08-03T08:18:55;5.20;;;2.38;;
69185;SDS011;56298;49.246;9.410;2022-08-03T08:21:20;5.77;;;2.37;;
69185;SDS011;56298;49.246;9.410;2022-08-03T08:23:45;5.13;;;2.53;;
69185;SDS011;56298;49.246;9.410;2022-08-03T08:26:11;6.65;;;2.40;;
69185;SDS011;56298;49.246;9.410;2022-08-03T08:28:36;4.87;;;2.50;;
69185;SDS011;56298;49.246;9.410;2022-08-03T08:31:02;5.30;;;2.50;;
69185;SDS011;56298;49.246;9.410;2022-08-03T08:33:27;4.20;;;2.33;;
69185;SDS011;56298;49.246;9.410;2022-08-03T08:35:53;7.77;;;2.50;;
69185;SDS011;56298;49.246;9.410;2022-08-03T08:38:18;4.70;;;2.10;;
69185;SDS011;56298;49.246;9.410;2022-08-03T08:40:44;6.55;;;2.50;;
69185;SDS011;56298;49.246;9.410;2022-08-03T08:43:09;5.57;;;2.40;;
69185;SDS011;56298;49.246;9.410;2022-08-03T08:45:34;5.87;;;2.60;;
69185;SDS011;56298;49.246;9.410;2022-08-03T08:48:01;4.95;;;2.70;;
69185;SDS011;56298;49.246;9.410;2022-08-03T08:50:28;5.25;;;2.47;;
69185;SDS011;56298;49.246;9.410;2022-08-03T08:52:54;5.45;;;2.20;;
69185;SDS011;56298;49.246;9.410;2022-08-03T08:55:21;5.23;;;2.40;;
69185;SDS011;56298;49.246;9.410;2022-08-03T08:57:48;5.22;;;2.33;;
69185;SDS011;56298;49.246;9.410;2022-08-03T09:00:15;5.67;;;2.30;;
69185;SDS011;56298;49.246;9.410;2022-08-03T09:02:41;5.32;;;2.13;;
69185;SDS011;56298;49.246;9.410;2022-08-03T09:05:11;5.28;;;2.10;;
69185;SDS011;56298;49.246;9.410;2022-08-03T09:07:42;7.40;;;1.90;;
69185;SDS011;56298;49.246;9.410;2022-08-03T09:10:09;4.15;;;1.70;;
69185;SDS011;56298;49.246;9.410;2022-08-03T09:12:46;4.50;;;2.10;;
69185;SDS011;56298;49.246;9.410;2022-08-03T09:15:22;4.32;;;2.03;;
69185;SDS011;56298;49.246;9.410;2022-08-03T09:18:06;5.20;;;1.90;;
69185;SDS011;56298;49.246;9.410;2022-08-03T09:20:49;5.50;;;2.00;;
69185;SDS011;56298;49.246;9.410;2022-08-03T09:23:44;4.90;;;1.77;;
69185;SDS011;56298;49.246;9.410;2022-08-03T11:52:36;3.53;;;1.60;;
69185;SDS011;56298;49.246;9.410;2022-08-03T11:55:20;4.17;;;1.80;;
69185;SDS011;56298;49.246;9.410;2022-08-03T11:58:03;4.40;;;1.60;;
69185;SDS011;56298;49.246;9.410;2022-08-03T12:01:18;4.18;;;1.60;;
69185;SDS011;56298;49.246;9.410;2022-08-03T12:04:05;4.10;;;2.00;;
69185;SDS011;56298;49.246;9.410;2022-08-03T12:12:37;4.60;;;1.80;;
69185;SDS011;56298;49.246;9.410;2022-08-03T12:15:29;3.90;;;1.70;;
69185;SDS011;56298;49.246;9.410;2022-08-03T12:18:21;4.15;;;1.80;;
69185;SDS011;56298;49.246;9.410;2022-08-03T12:21:06;4.35;;;1.67;;
69185;SDS011;56298;49.246;9.410;2022-08-03T12:23:47;5.20;;;1.85;;
69185;SDS011;56298;49.246;9.410;2022-08-03T12:26:49;5.50;;;2.10;;
69185;SDS011;56298;49.246;9.410;2022-08-03T12:29:30;5.10;;;1.70;;
69185;SDS011;56298;49.246;9.410;2022-08-03T12:31:55;4.30;;;1.85;;
69185;SDS011;56298;49.246;9.410;2022-08-03T12:37:49;4.32;;;1.67;;
69185;SDS011;56298;49.246;9.410;2022-08-03T12:41:25;4.75;;;1.70;;
69185;SDS011;56298;49.246;9.410;2022-08-03T12:43:53;5.38;;;1.65;;
69185;SDS011;56298;49.246;9.410;2022-08-03T12:51:42;5.22;;;1.65;;
69185;SDS011;56298;49.246;9.410;2022-08-03T12:54:22;5.20;;;1.50;;
69185;SDS011;56298;49.246;9.410;2022-08-03T12:57:06;4.32;;;1.77;;
69185;SDS011;56298;49.246;9.410;2022-08-03T12:59:35;4.32;;;1.60;;
69185;SDS011;56298;49.246;9.410;2022-08-03T13:02:12;4.57;;;1.80;;
69185;SDS011;56298;49.246;9.410;2022-08-03T13:04:59;5.20;;;1.83;;
69185;SDS011;56298;49.246;9.410;2022-08-03T13:07:47;5.30;;;1.85;;
69185;SDS011;56298;49.246;9.410;2022-08-03T13:10:25;5.20;;;1.60;;
69185;SDS011;56298;49.246;9.410;2022-08-03T13:12:52;5.68;;;1.90;;
69185;SDS011;56298;49.246;9.410;2022-08-03T13:15:22;4.45;;;1.58;;
69185;SDS011;56298;49.246;9.410;2022-08-03T13:17:55;4.38;;;1.50;;
69185;SDS011;56298;49.246;9.410;2022-08-03T13:20:21;4.43;;;1.53;;
69185;SDS011;56298;49.246;9.410;2022-08-03T13:22:47;4.80;;;1.80;;
69185;SDS011;56298;49.246;9.410;2022-08-03T13:25:13;5.47;;;1.40;;
69185;SDS011;56298;49.246;9.410;2022-08-03T13:27:38;5.23;;;1.57;;
69185;SDS011;56298;49.246;9.410;2022-08-03T13:30:04;6.10;;;1.85;;
69185;SDS011;56298;49.246;9.410;2022-08-03T13:32:31;4.65;;;1.67;;
69185;SDS011;56298;49.246;9.410;2022-08-03T13:34:57;5.10;;;1.60;;
69185;SDS011;56298;49.246;9.410;2022-08-03T13:37:22;3.58;;;1.60;;
69185;SDS011;56298;49.246;9.410;2022-08-03T13:39:48;5.03;;;1.67;;
69185;SDS011;56298;49.246;9.410;2022-08-03T13:42:35;5.53;;;1.60;;
69185;SDS011;56298;49.246;9.410;2022-08-03T13:45:30;4.57;;;1.40;;
69185;SDS011;56298;49.246;9.410;2022-08-03T13:47:59;4.10;;;1.75;;
69185;SDS011;56298;49.246;9.410;2022-08-03T13:50:25;4.97;;;1.60;;
69185;SDS011;56298;49.246;9.410;2022-08-03T13:52:50;4.83;;;1.53;;
69185;SDS011;56298;49.246;9.410;2022-08-03T13:55:16;4.40;;;1.47;;
69185;SDS011;56298;49.246;9.410;2022-08-03T13:57:41;4.40;;;1.50;;
69185;SDS011;56298;49.246;9.410;2022-08-03T14:00:06;4.47;;;1.60;;
69185;SDS011;56298;49.246;9.410;2022-08-03T14:02:32;3.45;;;1.40;;
69185;SDS011;56298;49.246;9.410;2022-08-03T14:04:57;4.33;;;1.60;;
69185;SDS011;56298;49.246;9.410;2022-08-03T14:07:23;4.73;;;1.50;;
69185;SDS011;56298;49.246;9.410;2022-08-03T14:09:48;4.60;;;1.40;;
69185;SDS011;56298;49.246;9.410;2022-08-03T14:12:13;3.65;;;1.50;;
69185;SDS011;56298;49.246;9.410;2022-08-03T14:14:38;5.27;;;1.60;;
69185;SDS011;56298;49.246;9.410;2022-08-03T14:17:04;4.40;;;1.57;;
69185;SDS011;56298;49.246;9.410;2022-08-03T14:19:29;3.70;;;1.57;;
69185;SDS011;56298;49.246;9.410;2022-08-03T14:21:58;5.23;;;1.60;;
69185;SDS011;56298;49.246;9.410;2022-08-03T14:24:23;3.60;;;1.40;;
69185;SDS011;56298;49.246;9.410;2022-08-03T14:26:48;5.77;;;1.77;;
69185;SDS011;56298;49.246;9.410;2022-08-03T14:29:13;4.00;;;1.60;;
69185;SDS011;56298;49.246;9.410;2022-08-03T14:31:39;4.10;;;1.80;;
69185;SDS011;56298;49.246;9.410;2022-08-03T14:34:04;3.27;;;1.57;;
69185;SDS011;56298;49.246;9.410;2022-08-03T14:36:29;4.50;;;1.40;;
69185;SDS011;56298;49.246;9.410;2022-08-03T14:38:55;3.70;;;1.67;;
69185;SDS011;56298;49.246;9.410;2022-08-03T14:41:20;4.32;;;1.60;;
69185;SDS011;56298;49.246;9.410;2022-08-03T14:43:46;3.70;;;1.70;;
69185;SDS011;56298;49.246;9.410;2022-08-03T14:46:11;4.20;;;1.70;;
69185;SDS011;56298;49.246;9.410;2022-08-03T14:48:37;4.00;;;1.70;;
69185;SDS011;56298;49.246;9.410;2022-08-03T14:51:03;5.27;;;1.60;;
69185;SDS011;56298;49.246;9.410;2022-08-03T14:53:28;3.95;;;1.60;;
69185;SDS011;56298;49.246;9.410;2022-08-03T14:55:54;4.00;;;1.60;;
69185;SDS011;56298;49.246;9.410;2022-08-03T14:58:19;4.27;;;1.80;;
69185;SDS011;56298;49.246;9.410;2022-08-03T15:00:50;5.20;;;1.70;;
69185;SDS011;56298;49.246;9.410;2022-08-03T15:03:16;5.10;;;1.63;;
69185;SDS011;56298;49.246;9.410;2022-08-03T15:05:45;4.78;;;1.80;;
69185;SDS011;56298;49.246;9.410;2022-08-03T15:08:10;4.07;;;1.57;;
69185;SDS011;56298;49.246;9.410;2022-08-03T15:10:35;5.53;;;1.73;;
69185;SDS011;56298;49.246;9.410;2022-08-03T15:13:01;3.57;;;1.73;;
69185;SDS011;56298;49.246;9.410;2022-08-03T15:15:26;4.47;;;1.87;;
69185;SDS011;56298;49.246;9.410;2022-08-03T15:17:51;3.90;;;1.77;;
69185;SDS011;56298;49.246;9.410;2022-08-03T15:20:17;3.83;;;1.70;;
69185;SDS011;56298;49.246;9.410;2022-08-03T15:22:42;3.92;;;1.70;;
69185;SDS011;56298;49.246;9.410;2022-08-03T15:25:07;4.77;;;1.77;;
69185;SDS011;56298;49.246;9.410;2022-08-03T15:27:33;4.40;;;1.80;;
69185;SDS011;56298;49.246;9.410;2022-08-03T15:29:58;5.13;;;1.77;;
69185;SDS011;56298;49.246;9.410;2022-08-03T15:32:24;4.27;;;1.50;;
69185;SDS011;56298;49.246;9.410;2022-08-03T15:34:49;3.50;;;1.80;;
69185;SDS011;56298;49.246;9.410;2022-08-03T15:37:16;4.13;;;1.60;;
69185;SDS011;56298;49.246;9.410;2022-08-03T15:39:41;3.70;;;1.70;;
69185;SDS011;56298;49.246;9.410;2022-08-03T15:42:06;5.05;;;1.70;;
69185;SDS011;56298;49.246;9.410;2022-08-03T15:44:32;4.03;;;1.70;;
69185;SDS011;56298;49.246;9.410;2022-08-03T15:46:57;4.67;;;1.80;;
69185;SDS011;56298;49.246;9.410;2022-08-03T15:49:22;5.37;;;1.80;;
69185;SDS011;56298;49.246;9.410;2022-08-03T15:51:47;4.50;;;1.63;;
69185;SDS011;56298;49.246;9.410;2022-08-03T15:54:12;3.60;;;1.57;;
69185;SDS011;56298;49.246;9.410;2022-08-03T15:56:38;3.53;;;1.67;;
69185;SDS011;56298;49.246;9.410;2022-08-03T15:59:05;4.13;;;1.60;;
69185;SDS011;56298;49.246;9.410;2022-08-03T16:01:31;5.00;;;1.70;;
69185;SDS011;56298;49.246;9.410;2022-08-03T16:03:56;4.18;;;2.00;;
69185;SDS011;56298;49.246;9.410;2022-08-03T16:06:22;4.30;;;1.80;;
69185;SDS011;56298;49.246;9.410;2022-08-03T16:08:47;5.00;;;1.77;;
69185;SDS011;56298;49.246;9.410;2022-08-03T16:11:12;3.70;;;1.73;;
69185;SDS011;56298;49.246;9.410;2022-08-03T16:13:38;3.83;;;1.80;;
69185;SDS011;56298;49.246;9.410;2022-08-03T16:16:03;5.23;;;1.90;;
69185;SDS011;56298;49.246;9.410;2022-08-03T16:18:29;4.40;;;1.60;;
69185;SDS011;56298;49.246;9.410;2022-08-03T16:20:55;4.28;;;1.60;;
69185;SDS011;56298;49.246;9.410;2022-08-03T16:23:21;4.75;;;1.73;;
69185;SDS011;56298;49.246;9.410;2022-08-03T16:25:46;4.10;;;1.40;;
69185;SDS011;56298;49.246;9.410;2022-08-03T16:28:12;4.15;;;1.88;;
69185;SDS011;56298;49.246;9.410;2022-08-03T16:30:37;4.53;;;2.17;;
69185;SDS011;56298;49.246;9.410;2022-08-03T16:33:03;4.47;;;1.90;;
69185;SDS011;56298;49.246;9.410;2022-08-03T16:35:28;4.20;;;1.60;;
69185;SDS011;56298;49.246;9.410;2022-08-03T16:37:54;4.80;;;1.70;;
69185;SDS011;56298;49.246;9.410;2022-08-03T16:40:19;4.33;;;1.50;;
69185;SDS011;56298;49.246;9.410;2022-08-03T16:42:45;4.53;;;1.70;;
69185;SDS011;56298;49.246;9.410;2022-08-03T16:45:11;4.87;;;1.80;;
69185;SDS011;56298;49.246;9.410;2022-08-03T16:47:36;4.97;;;1.50;;
69185;SDS011;56298;49.246;9.410;2022-08-03T16:50:01;5.78;;;1.50;;
69185;SDS011;56298;49.246;9.410;2022-08-03T16:52:27;4.10;;;1.60;;
69185;SDS011;56298;49.246;9.410;2022-08-03T16:54:52;4.50;;;1.63;;
69185;SDS011;56298;49.246;9.410;2022-08-03T16:57:19;3.90;;;1.55;;
69185;SDS011;56298;49.246;9.410;2022-08-03T16:59:45;5.10;;;1.70;;
69185;SDS011;56298;49.246;9.410;2022-08-03T17:02:21;5.20;;;1.70;;
69185;SDS011;56298;49.246;9.410;2022-08-03T17:04:48;4.20;;;1.63;;
69185;SDS011;56298;49.246;9.410;2022-08-03T17:07:14;4.70;;;1.83;;
69185;SDS011;56298;49.246;9.410;2022-08-03T17:09:40;4.55;;;1.88;;
69185;SDS011;56298;49.246;9.410;2022-08-03T17:12:07;4.40;;;1.83;;
69185;SDS011;56298;49.246;9.410;2022-08-03T17:14:32;5.80;;;1.80;;
69185;SDS011;56298;49.246;9.410;2022-08-03T17:16:58;3.57;;;1.70;;
69185;SDS011;56298;49.246;9.410;2022-08-03T17:19:25;4.95;;;1.80;;
69185;SDS011;56298;49.246;9.410;2022-08-03T17:21:59;3.83;;;1.70;;
69185;SDS011;56298;49.246;9.410;2022-08-03T17:24:33;4.20;;;1.50;;
69185;SDS011;56298;49.246;9.410;2022-08-03T17:27:01;3.67;;;1.58;;
69185;SDS011;56298;49.246;9.410;2022-08-03T17:29:33;3.60;;;1.50;;
69185;SDS011;56298;49.246;9.410;2022-08-03T17:34:56;5.63;;;1.70;;
69185;SDS011;56298;49.246;9.410;2022-08-03T17:37:21;4.13;;;1.50;;
69185;SDS011;56298;49.246;9.410;2022-08-03T17:39:47;3.47;;;1.60;;
69185;SDS011;56298;49.246;9.410;2022-08-03T17:42:12;4.27;;;1.80;;
69185;SDS011;56298;49.246;9.410;2022-08-03T17:44:38;4.90;;;1.73;;
69185;SDS011;56298;49.246;9.410;2022-08-03T17:47:06;5.03;;;2.00;;
69185;SDS011;56298;49.246;9.410;2022-08-03T17:49:32;4.87;;;1.97;;
69185;SDS011;56298;49.246;9.410;2022-08-03T17:54:34;5.18;;;1.75;;